createdAt,value
2019-05-25T00:01:50.715Z,56.60
2019-05-25T00:04:21.643Z,57.20
2019-05-25T00:06:52.717Z,56.76
2019-05-25T00:09:34.381Z,57.13
2019-05-25T00:12:06.214Z,57.01
2019-05-25T00:14:36.727Z,57.26
2019-05-25T00:17:07.164Z,57.37
2019-05-25T00:19:37.066Z,57.37
2019-05-25T00:22:07.168Z,57.53
2019-05-25T00:24:37.296Z,57.90
2019-05-25T00:27:06.839Z,58.44
2019-05-25T00:29:42.930Z,59.37
2019-05-25T00:32:15.904Z,59.34
2019-05-25T00:34:50.765Z,59.74
2019-05-25T00:37:21.781Z,59.79
2019-05-25T00:39:53.260Z,60.18
2019-05-25T00:42:24.013Z,60.35
2019-05-25T00:44:54.779Z,60.36
2019-05-25T00:47:28.368Z,61.00
2019-05-25T00:49:59.036Z,60.64
2019-05-25T00:52:30.204Z,60.84
2019-05-25T00:55:00.138Z,60.80
2019-05-25T00:57:30.142Z,60.99
2019-05-25T01:00:01.329Z,61.42
2019-05-25T01:02:42.311Z,60.82
2019-05-25T01:05:20.260Z,60.73
2019-05-25T01:07:50.754Z,61.62
2019-05-25T01:10:21.495Z,61.79
2019-05-25T01:12:55.049Z,61.12
2019-05-25T01:15:32.432Z,61.05
2019-05-25T01:18:04.671Z,60.42
2019-05-25T01:20:37.965Z,60.83
2019-05-25T01:23:10.921Z,60.49
2019-05-25T01:28:16.253Z,60.00
2019-05-25T01:30:47.237Z,60.03
2019-05-25T01:33:21.608Z,61.48
2019-05-25T01:35:52.712Z,61.08
2019-05-25T01:38:26.525Z,60.64
2019-05-25T01:40:57.163Z,59.98
2019-05-25T01:43:27.324Z,60.27
2019-05-25T01:45:57.886Z,61.58
2019-05-25T01:48:28.943Z,62.39
2019-05-25T01:51:03.306Z,63.07
2019-05-25T01:53:43.060Z,63.60
2019-05-25T01:56:16.621Z,64.37
2019-05-25T01:58:46.767Z,64.21
2019-05-25T02:01:17.672Z,65.02
2019-05-25T02:03:48.286Z,65.96
2019-05-25T02:06:18.787Z,66.78
2019-05-25T02:08:50.733Z,67.92
2019-05-25T02:11:20.585Z,68.39
2019-05-25T02:13:50.803Z,68.97
2019-05-25T02:16:23.898Z,69.42
2019-05-25T02:18:54.160Z,69.56
2019-05-25T02:21:25.345Z,70.15
2019-05-25T02:23:56.624Z,70.04
2019-05-25T02:26:27.024Z,70.17
2019-05-25T02:28:57.641Z,71.13
2019-05-25T02:31:28.109Z,71.55
2019-05-25T02:33:58.965Z,72.02
2019-05-25T02:36:30.003Z,72.04
2019-05-25T02:39:03.270Z,72.18
2019-05-25T02:41:36.741Z,72.71
2019-05-25T02:44:07.664Z,72.86
2019-05-25T02:46:37.989Z,72.58
2019-05-25T02:49:06.759Z,72.23
2019-05-25T02:51:36.660Z,72.94
2019-05-25T02:54:08.093Z,72.96
2019-05-25T02:56:35.856Z,74.06
2019-05-25T02:59:07.675Z,73.30
2019-05-25T03:01:37.866Z,74.13
2019-05-25T03:04:08.083Z,73.37
2019-05-25T03:06:37.952Z,73.72
2019-05-25T03:09:07.923Z,74.39
2019-05-25T03:11:38.102Z,73.26
2019-05-25T03:14:08.831Z,73.33
2019-05-25T03:16:40.406Z,72.17
2019-05-25T03:19:16.928Z,71.40
2019-05-25T03:21:49.142Z,72.45
2019-05-25T03:24:19.890Z,71.88
2019-05-25T03:26:50.766Z,70.45
2019-05-25T03:29:22.454Z,69.69
2019-05-25T03:31:53.223Z,68.81
2019-05-25T03:34:29.189Z,68.20
2019-05-25T03:37:00.661Z,67.65
2019-05-25T03:39:31.264Z,67.65
2019-05-25T03:42:04.552Z,66.99
2019-05-25T03:44:35.562Z,65.87
2019-05-25T03:47:07.552Z,66.33
2019-05-25T03:49:40.838Z,67.81
2019-05-25T03:52:15.854Z,67.76
2019-05-25T03:54:50.266Z,67.21
2019-05-25T03:57:21.254Z,67.94
2019-05-25T03:59:51.555Z,67.06
2019-05-25T04:02:22.795Z,66.48
2019-05-25T04:04:56.401Z,67.49
2019-05-25T04:10:11.855Z,67.12
2019-05-25T04:12:45.513Z,66.65
2019-05-25T04:15:16.030Z,66.45
2019-05-25T04:17:49.147Z,66.36
2019-05-25T04:20:20.352Z,66.60
2019-05-25T04:22:51.117Z,66.37
2019-05-25T04:25:22.888Z,66.00
2019-05-25T04:27:53.521Z,66.58
2019-05-25T04:30:25.811Z,66.59
2019-05-25T04:32:59.375Z,66.46
2019-05-25T04:35:29.362Z,66.49
2019-05-25T04:37:59.440Z,66.36
2019-05-25T04:40:29.908Z,66.40
2019-05-25T04:43:01.709Z,66.50
2019-05-25T04:45:32.760Z,66.65
2019-05-25T04:48:05.566Z,66.84
2019-05-25T04:50:38.353Z,66.84
2019-05-25T04:53:12.272Z,66.44
2019-05-25T04:55:46.215Z,67.02
2019-05-25T05:00:51.131Z,67.34
2019-05-25T05:03:23.154Z,67.06
2019-05-25T05:05:54.511Z,67.29
2019-05-25T05:08:30.588Z,66.55
2019-05-25T05:11:09.754Z,67.51
2019-05-25T05:13:43.786Z,67.29
2019-05-25T05:16:14.203Z,67.01
2019-05-25T05:18:46.372Z,66.87
2019-05-25T05:21:21.806Z,67.25
2019-05-25T05:23:57.852Z,67.37
2019-05-25T05:26:32.526Z,67.24
2019-05-25T05:29:07.558Z,67.31
2019-05-25T05:31:40.595Z,67.31
2019-05-25T05:34:15.345Z,67.66
2019-05-25T05:36:50.739Z,67.89
2019-05-25T05:39:27.901Z,67.67
2019-05-25T05:42:02.793Z,67.28
2019-05-25T05:44:40.595Z,67.45
2019-05-25T05:47:16.552Z,67.50
2019-05-25T05:49:58.776Z,67.78
2019-05-25T05:52:34.230Z,68.16
2019-05-25T05:55:07.713Z,68.38
2019-05-25T05:57:42.685Z,67.95
2019-05-25T06:00:19.853Z,68.23
2019-05-25T06:02:55.575Z,68.45
2019-05-25T06:05:29.466Z,68.70
2019-05-25T06:08:09.637Z,69.05
2019-05-25T06:10:40.339Z,68.98
2019-05-25T06:13:11.394Z,69.00
2019-05-25T06:15:48.045Z,68.80
2019-05-25T06:18:20.031Z,68.45
2019-05-25T06:20:55.074Z,68.43
2019-05-25T06:23:33.481Z,68.45
2019-05-25T06:26:05.174Z,68.81
2019-05-25T06:28:38.825Z,69.50
2019-05-25T06:31:14.314Z,69.16
2019-05-25T06:33:46.993Z,68.63
2019-05-25T06:36:18.165Z,68.59
2019-05-25T06:38:49.855Z,68.90
2019-05-25T06:41:25.530Z,68.87
2019-05-25T06:43:57.065Z,68.78
2019-05-25T06:46:31.290Z,68.58
2019-05-25T06:49:14.284Z,68.68
2019-05-25T06:51:45.614Z,69.41
2019-05-25T06:54:18.572Z,69.24
2019-05-25T06:56:54.460Z,69.15
2019-05-25T06:59:38.674Z,69.17
2019-05-25T07:02:09.729Z,68.58
2019-05-25T07:04:43.733Z,68.90
2019-05-25T07:07:21.434Z,68.84
2019-05-25T07:09:53.866Z,68.69
2019-05-25T07:12:25.969Z,68.62
2019-05-25T07:17:39.418Z,68.42
2019-05-25T07:20:11.941Z,68.12
2019-05-25T07:22:44.082Z,68.10
2019-05-25T07:25:20.455Z,67.47
2019-05-25T07:27:59.837Z,68.24
2019-05-25T07:30:26.012Z,68.58
2019-05-25T07:32:57.790Z,68.06
2019-05-25T07:35:28.225Z,68.14
2019-05-25T07:37:59.010Z,67.49
2019-05-25T07:40:30.196Z,67.70
2019-05-25T07:43:07.194Z,68.23
2019-05-25T07:45:40.416Z,68.45
2019-05-25T07:48:12.677Z,67.81
2019-05-25T07:50:44.447Z,67.95
2019-05-25T07:53:15.880Z,67.81
2019-05-25T07:55:47.163Z,67.21
2019-05-25T07:58:19.873Z,66.41
2019-05-25T08:00:50.042Z,66.36
2019-05-25T08:03:22.515Z,66.53
2019-05-25T08:05:53.857Z,65.78
2019-05-25T08:08:25.146Z,65.57
2019-05-25T08:10:55.298Z,65.02
2019-05-25T08:13:25.584Z,65.53
2019-05-25T08:15:56.000Z,65.17
2019-05-25T08:18:33.470Z,64.06
2019-05-25T08:21:10.451Z,64.55
2019-05-25T08:23:40.745Z,64.29
2019-05-25T08:26:12.533Z,63.55
2019-05-25T08:28:42.603Z,63.65
2019-05-25T08:31:15.712Z,63.85
2019-05-25T08:33:46.048Z,63.54
2019-05-25T08:36:16.022Z,63.41
2019-05-25T08:38:46.842Z,63.40
2019-05-25T08:41:17.082Z,62.59
2019-05-25T08:43:52.897Z,62.97
2019-05-25T08:46:28.939Z,62.89
2019-05-25T08:53:46.905Z,62.50
2019-05-25T08:56:21.058Z,62.05
2019-05-25T08:58:55.485Z,62.65
2019-05-25T09:01:27.863Z,62.46
2019-05-25T09:03:58.154Z,62.29
2019-05-25T09:06:30.719Z,62.40
2019-05-25T09:09:04.754Z,62.68
2019-05-25T09:17:03.318Z,64.04
2019-05-25T09:19:41.066Z,63.55
2019-05-25T09:22:11.951Z,62.60
2019-05-25T09:24:45.474Z,62.52
2019-05-25T09:27:24.834Z,62.85
2019-05-25T09:29:55.930Z,62.08
2019-05-25T09:32:29.789Z,62.05
2019-05-25T09:35:00.937Z,61.76
2019-05-25T09:37:36.401Z,61.46
2019-05-25T09:40:07.930Z,60.45
2019-05-25T09:42:39.492Z,61.13
2019-05-25T09:45:13.819Z,60.28
2019-05-25T09:47:41.337Z,61.39
2019-05-25T09:51:01.779Z,62.93
2019-05-25T09:53:34.276Z,59.02
2019-05-25T09:56:05.989Z,59.72
2019-05-25T09:58:38.995Z,59.37
2019-05-25T10:01:10.378Z,59.67
2019-05-25T10:03:42.960Z,59.94
2019-05-25T10:06:14.751Z,59.86
2019-05-25T10:08:46.348Z,60.50
2019-05-25T10:11:17.246Z,59.66
2019-05-25T10:13:48.210Z,60.49
2019-05-25T10:16:20.832Z,61.14
2019-05-25T10:18:57.730Z,60.04
2019-05-25T10:21:28.370Z,60.18
2019-05-25T10:23:59.055Z,59.97
2019-05-25T10:26:30.724Z,59.09
2019-05-25T10:29:04.290Z,60.01
2019-05-25T10:31:37.602Z,60.31
2019-05-25T10:34:08.683Z,60.58
2019-05-25T10:36:40.346Z,59.94
2019-05-25T10:41:55.162Z,59.40
2019-05-25T10:44:26.062Z,58.02
2019-05-25T10:46:57.869Z,57.29
2019-05-25T10:49:28.894Z,57.72
2019-05-25T10:51:58.994Z,56.68
2019-05-25T10:54:29.316Z,58.31
2019-05-25T10:56:59.704Z,57.67
2019-05-25T10:59:30.158Z,57.82
2019-05-25T11:02:03.359Z,55.17
2019-05-25T11:04:34.260Z,55.65
2019-05-25T11:07:04.695Z,56.96
2019-05-25T11:09:36.112Z,55.84
2019-05-25T11:12:08.270Z,55.54
2019-05-25T11:14:48.496Z,55.73
2019-05-25T11:17:20.787Z,55.90
2019-05-25T11:19:52.595Z,55.48
2019-05-25T11:22:25.593Z,54.90
2019-05-25T11:24:57.993Z,54.14
2019-05-25T11:27:29.044Z,54.73
2019-05-25T11:30:09.155Z,53.27
2019-05-25T11:32:39.317Z,55.16
2019-05-25T11:35:10.306Z,55.40
2019-05-25T11:37:40.924Z,54.95
2019-05-25T11:40:15.393Z,55.66
2019-05-25T11:42:48.979Z,55.45
2019-05-25T11:45:19.230Z,55.85
2019-05-25T11:47:49.616Z,55.63
2019-05-25T11:50:19.812Z,54.93
2019-05-25T11:52:49.865Z,53.63
2019-05-25T11:55:20.562Z,52.75
2019-05-25T11:57:50.874Z,52.52
2019-05-25T12:00:25.338Z,53.25
2019-05-25T12:02:56.945Z,53.77
2019-05-25T12:05:28.220Z,53.21
2019-05-25T12:07:59.385Z,54.22
2019-05-25T12:10:31.098Z,53.48
2019-05-25T12:13:01.592Z,52.35
2019-05-25T12:15:31.954Z,52.15
2019-05-25T12:18:05.518Z,51.95
2019-05-25T12:20:37.157Z,50.94
2019-05-25T12:23:08.049Z,52.61
2019-05-25T12:25:39.943Z,52.64
2019-05-25T12:28:09.983Z,51.88
2019-05-25T12:30:43.229Z,53.20
2019-05-25T12:33:13.856Z,53.21
2019-05-25T12:35:45.664Z,53.06
2019-05-25T12:38:57.756Z,53.26
2019-05-25T12:41:33.427Z,52.39
2019-05-25T12:44:04.792Z,51.29
2019-05-25T12:46:39.808Z,51.97
2019-05-25T12:49:11.562Z,52.28
2019-05-25T12:51:43.054Z,53.11
2019-05-25T12:54:19.958Z,53.05
2019-05-25T12:56:55.591Z,53.41
2019-05-25T12:59:29.804Z,51.72
2019-05-25T13:02:05.243Z,51.56
2019-05-25T13:04:38.388Z,49.70
2019-05-25T13:07:11.620Z,50.16
2019-05-25T13:09:45.834Z,50.06
2019-05-25T13:12:15.474Z,50.83
2019-05-25T13:14:46.340Z,49.50
2019-05-25T13:17:17.629Z,48.81
2019-05-25T13:19:47.710Z,49.11
2019-05-25T13:22:17.839Z,50.25
2019-05-25T13:24:48.679Z,50.38
2019-05-25T13:27:19.485Z,49.61
2019-05-25T13:29:50.690Z,50.15
2019-05-25T13:32:24.847Z,50.23
2019-05-25T13:34:59.907Z,49.09
2019-05-25T13:37:32.300Z,48.35
2019-05-25T13:40:07.481Z,49.43
2019-05-25T13:42:37.271Z,49.82
2019-05-25T13:45:07.973Z,48.04
2019-05-25T13:47:37.964Z,48.25
2019-05-25T13:50:09.080Z,48.55
2019-05-25T13:52:39.860Z,48.52
2019-05-25T13:55:09.947Z,49.38
2019-05-25T13:57:39.937Z,48.94
2019-05-25T14:00:10.486Z,51.25
2019-05-25T14:02:40.795Z,47.10
2019-05-25T14:05:10.889Z,48.35
2019-05-25T14:07:41.246Z,47.97
2019-05-25T14:10:11.742Z,47.43
2019-05-25T14:12:44.014Z,49.10
2019-05-25T14:15:16.494Z,47.57
2019-05-25T14:17:47.052Z,47.65
2019-05-25T14:20:18.320Z,48.44
2019-05-25T14:22:49.209Z,48.55
2019-05-25T14:25:20.354Z,47.55
2019-05-25T14:27:51.350Z,48.91
2019-05-25T14:30:21.911Z,48.15
2019-05-25T14:32:53.175Z,46.61
2019-05-25T14:35:23.923Z,48.21
2019-05-25T14:37:57.505Z,46.57
2019-05-25T14:40:31.300Z,47.04
2019-05-25T14:43:01.510Z,47.24
2019-05-25T14:45:31.933Z,46.45
2019-05-25T14:48:01.968Z,46.16
2019-05-25T14:50:32.942Z,47.07
2019-05-25T14:53:05.087Z,46.39
2019-05-25T14:55:35.209Z,45.78
2019-05-25T14:58:05.811Z,46.12
2019-05-25T15:00:37.885Z,45.20
2019-05-25T15:03:10.443Z,46.47
2019-05-25T15:05:41.576Z,45.55
2019-05-25T15:08:15.526Z,47.27
2019-05-25T15:13:29.955Z,45.42
2019-05-25T15:16:00.630Z,46.12
2019-05-25T15:18:31.742Z,46.25
2019-05-25T15:21:03.846Z,46.82
2019-05-25T15:23:34.741Z,45.58
2019-05-25T15:26:11.670Z,46.91
2019-05-25T15:28:41.773Z,46.55
2019-05-25T15:31:11.785Z,44.83
2019-05-25T15:33:42.383Z,43.83
2019-05-25T15:36:17.467Z,44.74
2019-05-25T15:38:52.666Z,44.85
2019-05-25T15:41:26.961Z,45.69
2019-05-25T15:44:16.965Z,44.99
2019-05-25T15:46:54.731Z,44.54
2019-05-25T15:49:33.581Z,44.77
2019-05-25T15:55:05.287Z,44.54
2019-05-25T15:57:35.053Z,44.92
2019-05-25T16:00:09.409Z,44.83
2019-05-25T16:02:40.676Z,44.47
2019-05-25T16:05:10.279Z,44.54
2019-05-25T16:07:40.741Z,43.67
2019-05-25T16:10:11.635Z,43.86
2019-05-25T16:12:42.021Z,44.59
2019-05-25T16:15:11.798Z,44.51
2019-05-25T16:17:41.936Z,43.95
2019-05-25T16:20:13.069Z,44.47
2019-05-25T16:22:44.543Z,43.00
2019-05-25T16:25:19.553Z,43.32
2019-05-25T16:27:49.611Z,44.72
2019-05-25T16:30:21.122Z,43.96
2019-05-25T16:35:20.688Z,43.59
2019-05-25T16:37:51.129Z,42.96
2019-05-25T16:40:20.721Z,43.14
2019-05-25T16:42:52.447Z,43.71
2019-05-25T16:45:23.913Z,43.79
2019-05-25T16:47:53.994Z,44.21
2019-05-25T16:50:25.196Z,43.46
2019-05-25T16:52:55.243Z,43.19
2019-05-25T16:55:25.476Z,42.41
2019-05-25T16:57:55.151Z,43.19
2019-05-25T17:00:28.659Z,42.96
2019-05-25T17:03:05.947Z,42.47
2019-05-25T17:05:37.975Z,43.19
2019-05-25T17:08:08.463Z,42.73
2019-05-25T17:10:38.767Z,43.46
2019-05-25T17:13:09.431Z,44.01
2019-05-25T17:15:40.403Z,44.23
2019-05-25T17:18:11.132Z,43.53
2019-05-25T17:20:41.773Z,44.01
2019-05-25T17:23:15.077Z,43.89
2019-05-25T17:25:46.859Z,43.72
2019-05-25T17:28:19.560Z,44.19
2019-05-25T17:30:50.260Z,43.53
2019-05-25T17:33:20.279Z,44.65
2019-05-25T17:35:56.688Z,44.75
2019-05-25T17:38:32.474Z,44.52
2019-05-25T17:41:07.567Z,45.01
2019-05-25T17:43:37.857Z,45.57
2019-05-25T17:46:08.117Z,45.05
2019-05-25T17:48:38.535Z,45.71
2019-05-25T17:51:19.782Z,45.29
2019-05-25T17:53:50.920Z,45.12
2019-05-25T17:56:23.032Z,45.61
2019-05-25T17:58:56.288Z,45.29
2019-05-25T18:01:26.998Z,45.77
2019-05-25T18:04:06.318Z,45.81
2019-05-25T18:06:31.719Z,45.81
2019-05-25T18:09:02.310Z,44.94
2019-05-25T18:11:34.405Z,45.99
2019-05-25T18:14:07.349Z,44.80
2019-05-25T18:16:40.714Z,45.43
2019-05-25T18:19:11.920Z,45.53
2019-05-25T18:21:44.773Z,44.80
2019-05-25T18:24:16.483Z,45.10
2019-05-25T18:26:47.263Z,45.93
2019-05-25T18:29:18.762Z,45.97
2019-05-25T18:31:49.819Z,46.97
2019-05-25T18:34:22.648Z,45.72
2019-05-25T18:36:52.577Z,45.27
2019-05-25T18:39:24.925Z,45.80
2019-05-25T18:41:56.112Z,45.85
2019-05-25T18:44:32.144Z,46.53
2019-05-25T18:47:05.874Z,46.81
2019-05-25T18:49:43.451Z,46.64
2019-05-25T18:52:16.961Z,47.71
2019-05-25T18:54:49.477Z,47.82
2019-05-25T19:00:05.805Z,47.37
2019-05-25T19:02:39.831Z,47.29
2019-05-25T19:05:16.246Z,47.04
2019-05-25T19:07:55.946Z,47.23
2019-05-25T19:10:35.200Z,47.41
2019-05-25T19:13:07.537Z,46.92
2019-05-25T19:15:37.298Z,46.56
2019-05-25T19:18:07.736Z,48.39
2019-05-25T19:20:39.042Z,48.76
2019-05-25T19:23:10.472Z,48.54
2019-05-25T19:25:42.934Z,48.88
2019-05-25T19:28:12.233Z,50.33
2019-05-25T19:30:49.376Z,49.98
2019-05-25T19:33:21.026Z,50.55
2019-05-25T19:35:54.423Z,50.71
2019-05-25T19:38:23.676Z,51.06
2019-05-25T19:40:53.549Z,50.67
2019-05-25T19:43:23.121Z,49.54
2019-05-25T19:45:59.169Z,49.99
2019-05-25T19:48:29.135Z,50.58
2019-05-25T19:50:59.581Z,50.14
2019-05-25T19:53:31.221Z,49.50
2019-05-25T19:56:01.682Z,49.62
2019-05-25T19:58:30.051Z,49.69
2019-05-25T20:00:58.071Z,50.27
2019-05-25T20:03:27.735Z,50.23
2019-05-25T20:05:59.487Z,51.17
2019-05-25T20:08:30.073Z,52.67
2019-05-25T20:11:06.817Z,53.22
2019-05-25T20:13:44.214Z,54.17
2019-05-25T20:16:17.189Z,55.26
2019-05-25T20:18:47.003Z,55.06
2019-05-25T20:21:18.785Z,54.89
2019-05-25T20:23:48.796Z,55.73
2019-05-25T20:26:19.755Z,56.14
2019-05-25T20:28:50.997Z,56.68
2019-05-25T20:31:23.018Z,56.04
2019-05-25T20:33:59.656Z,56.57
2019-05-25T20:36:31.079Z,56.77
2019-05-25T20:39:03.525Z,57.30
2019-05-25T20:41:35.186Z,56.77
2019-05-25T20:44:05.960Z,56.79
2019-05-25T20:46:36.558Z,57.23
2019-05-25T20:49:07.121Z,57.87
2019-05-25T20:51:36.921Z,58.02
2019-05-25T20:54:08.867Z,57.65
2019-05-25T20:56:38.694Z,57.70
2019-05-25T20:59:08.759Z,57.88
2019-05-25T21:01:38.742Z,57.95
2019-05-25T21:04:13.830Z,58.28
2019-05-25T21:06:46.106Z,58.73
2019-05-25T21:12:11.292Z,58.26
2019-05-25T21:14:44.395Z,58.99
2019-05-25T21:17:20.753Z,59.38
2019-05-25T21:19:53.605Z,59.32
2019-05-25T21:22:25.654Z,60.35
2019-05-25T21:24:55.950Z,60.78
2019-05-25T21:27:27.128Z,62.05
2019-05-25T21:29:57.711Z,62.06
2019-05-25T21:32:31.937Z,62.04
2019-05-25T21:35:09.139Z,63.08
2019-05-25T21:37:42.630Z,62.57
2019-05-25T21:40:12.719Z,63.27
2019-05-25T21:42:42.583Z,63.51
2019-05-25T21:45:13.484Z,63.22
2019-05-25T21:47:43.219Z,64.42
2019-05-25T21:50:12.998Z,63.98
2019-05-25T21:52:43.381Z,63.88
2019-05-25T21:55:13.101Z,64.22
2019-05-25T21:57:43.263Z,63.54
2019-05-25T22:00:13.650Z,62.85
2019-05-25T22:02:46.721Z,62.10
2019-05-25T22:05:16.569Z,62.54
2019-05-25T22:07:47.295Z,64.14
2019-05-25T22:10:17.280Z,64.40
2019-05-25T22:12:47.959Z,64.57
2019-05-25T22:17:40.094Z,64.99
2019-05-25T22:20:10.136Z,64.33
2019-05-25T22:22:39.547Z,64.32
2019-05-25T22:25:07.525Z,63.86
2019-05-25T22:27:35.912Z,63.07
2019-05-25T22:30:03.522Z,62.00
2019-05-25T22:32:32.824Z,61.71
2019-05-25T22:35:00.321Z,60.46
2019-05-25T22:37:28.974Z,61.84
2019-05-25T22:39:56.621Z,61.88
2019-05-25T22:42:24.414Z,61.88
2019-05-25T22:44:52.018Z,62.28
2019-05-25T22:47:20.959Z,63.58
2019-05-25T22:49:48.579Z,63.77
2019-05-25T22:52:18.640Z,64.34
2019-05-25T22:54:46.947Z,64.26
2019-05-25T22:57:16.467Z,64.77
2019-05-25T22:59:44.057Z,64.56
2019-05-25T23:02:12.413Z,63.70
2019-05-25T23:04:40.036Z,63.97
2019-05-25T23:07:08.813Z,64.24
2019-05-25T23:09:37.003Z,63.70
2019-05-25T23:12:04.537Z,63.46
2019-05-25T23:14:32.706Z,64.44
2019-05-25T23:17:02.314Z,64.73
2019-05-25T23:19:29.772Z,65.44
2019-05-25T23:21:57.454Z,64.88
2019-05-25T23:24:25.030Z,64.50
2019-05-25T23:26:53.913Z,65.34
2019-05-25T23:29:21.631Z,65.63
2019-05-25T23:31:49.506Z,64.58
2019-05-25T23:34:18.286Z,64.00
2019-05-25T23:36:47.340Z,64.28
2019-05-25T23:39:17.026Z,65.25
2019-05-25T23:41:45.475Z,65.10
2019-05-25T23:44:13.836Z,66.02
2019-05-25T23:46:41.437Z,66.31
2019-05-25T23:49:10.018Z,66.28
2019-05-25T23:51:37.746Z,66.18
2019-05-25T23:54:05.489Z,65.79
2019-05-25T23:56:33.393Z,66.26
2019-05-25T23:59:01.706Z,66.49
